Time;durP1;ratioP1;P1;durP2;ratioP2;P2;SDS_P1;SDS_P2;PMS_P1;PMS_P2;Temp;Humidity;BMP_temperature;BMP_pressure;BME280_temperature;BME280_humidity;BME280_pressure;Samples;Min_cycle;Max_cycle;Signal;HPM_P1;HPM_P2
2022/11/16 00:01:15;;;;;;;;;;;8.10;99.90;;;;;;4983276;28;19939;-70
2022/11/16 00:03:41;;;;;;;;;;;8.10;99.90;;;;;;4983299;28;19960;-70
2022/11/16 00:06:07;;;;;;;;;;;8.10;99.90;;;;;;4984209;28;19910;-70
2022/11/16 00:08:34;;;;;;;;;;;8.10;99.90;;;;;;4983255;28;19910;-70
2022/11/16 00:11:13;;;;;;;;;;;8.10;99.90;;;;;;4982673;28;19922;-70
2022/11/16 00:13:40;;;;;;;;;;;8.10;99.90;;;;;;4982912;28;20094;-70
2022/11/16 00:16:06;;;;;;;;;;;8.10;99.90;;;;;;4966775;28;19917;-70
2022/11/16 00:18:31;;;;;;;;;;;8.10;99.90;;;;;;4984049;28;19918;-70
2022/11/16 00:20:57;;;;;;;;;;;8.00;99.90;;;;;;4984288;28;20197;-70
2022/11/16 00:23:23;;;;;;;;;;;8.00;99.90;;;;;;4984039;28;19910;-70
2022/11/16 00:25:48;;;;;;;;;;;8.00;99.90;;;;;;4984132;28;19914;-70
2022/11/16 00:28:14;;;;;;;;;;;8.00;99.90;;;;;;4983503;28;19910;-70
2022/11/16 00:30:40;;;;;;;;;;;8.00;99.90;;;;;;4983753;28;19910;-70
2022/11/16 00:33:06;;;;;;;;;;;8.10;99.90;;;;;;4983902;28;19922;-70
2022/11/16 00:35:31;;;;;;;;;;;8.00;99.90;;;;;;4982615;28;19918;-69
2022/11/16 00:37:57;;;;;;;;;;;8.00;99.90;;;;;;4982419;28;19922;-70
2022/11/16 00:40:23;;;;;;;;;;;8.10;99.90;;;;;;4983910;28;19997;-70
2022/11/16 00:42:48;;;;;;;;;;;8.00;99.90;;;;;;4983629;28;19910;-70
2022/11/16 00:45:14;;;;;;;;;;;8.10;99.90;;;;;;4983841;28;19916;-70
2022/11/16 00:47:40;;;;;;;;;;;8.00;99.90;;;;;;4983507;28;19965;-70
2022/11/16 00:50:05;;;;;;;;;;;8.00;99.90;;;;;;4983381;28;19925;-70
2022/11/16 00:52:31;;;;;;;;;;;8.00;99.90;;;;;;4983714;28;19918;-70
2022/11/16 00:54:57;;;;;;;;;;;8.00;99.90;;;;;;4983758;28;20149;-70
2022/11/16 00:57:22;;;;;;;;;;;8.00;99.90;;;;;;4983194;28;19910;-70
2022/11/16 00:59:48;;;;;;;;;;;8.00;99.90;;;;;;4982649;28;19910;-69
2022/11/16 01:02:14;;;;;;;;;;;8.00;99.90;;;;;;4983620;28;19917;-70
2022/11/16 01:04:39;;;;;;;;;;;8.10;99.90;;;;;;4983617;28;19915;-70
2022/11/16 01:07:05;;;;;;;;;;;8.10;99.90;;;;;;4983043;28;19926;-70
2022/11/16 01:09:30;;;;;;;;;;;8.10;99.90;;;;;;4983680;28;19918;-70
2022/11/16 01:12:08;;;;;;;;;;;8.10;99.90;;;;;;4982833;28;19910;-71
2022/11/16 01:14:44;;;;;;;;;;;8.10;99.90;;;;;;4983513;28;19916;-72
2022/11/16 01:17:10;;;;;;;;;;;8.10;99.90;;;;;;4982069;28;19980;-70
2022/11/16 01:19:36;;;;;;;;;;;8.10;99.90;;;;;;4983446;28;19918;-70
2022/11/16 01:22:01;;;;;;;;;;;8.10;99.90;;;;;;4982386;28;19924;-70
2022/11/16 01:24:27;;;;;;;;;;;8.10;99.90;;;;;;4983393;28;20205;-70
2022/11/16 01:26:57;;;;;;;;;;;8.10;99.90;;;;;;4981743;28;19954;-70
2022/11/16 01:29:27;;;;;;;;;;;8.10;99.90;;;;;;4982292;28;20213;-70
2022/11/16 01:31:54;;;;;;;;;;;8.10;99.90;;;;;;4982653;28;19910;-70
2022/11/16 01:34:20;;;;;;;;;;;8.10;99.90;;;;;;4982219;28;20224;-70
2022/11/16 01:36:45;;;;;;;;;;;8.10;99.90;;;;;;4981766;28;19918;-70
2022/11/16 01:39:11;;;;;;;;;;;8.10;99.90;;;;;;4983353;28;19925;-70
2022/11/16 01:41:37;;;;;;;;;;;8.10;99.90;;;;;;4982696;28;19910;-70
2022/11/16 01:44:25;;;;;;;;;;;8.10;99.90;;;;;;4965963;28;19937;-70
2022/11/16 01:46:51;;;;;;;;;;;8.10;99.90;;;;;;4982818;28;19998;-70
2022/11/16 01:49:19;;;;;;;;;;;8.10;99.90;;;;;;4983178;28;19917;-70
2022/11/16 01:51:47;;;;;;;;;;;8.10;99.90;;;;;;4982099;28;19917;-70
2022/11/16 01:54:12;;;;;;;;;;;8.10;99.90;;;;;;4982059;28;19910;-71
2022/11/16 01:56:38;;;;;;;;;;;8.00;99.90;;;;;;4982669;28;19977;-70
2022/11/16 01:59:04;;;;;;;;;;;8.00;99.90;;;;;;4982047;28;19917;-70
2022/11/16 02:01:29;;;;;;;;;;;8.00;99.90;;;;;;4983517;28;19910;-70
2022/11/16 02:03:55;;;;;;;;;;;8.00;99.90;;;;;;4985681;28;19918;-70
2022/11/16 02:06:27;;;;;;;;;;;8.00;99.90;;;;;;4986621;28;19946;-70
2022/11/16 02:09:52;;;;;;;;;;;8.00;99.90;;;;;;4986712;28;20235;-70
2022/11/16 02:12:48;;;;;;;;;;;8.00;99.90;;;;;;4975567;28;19910;-70
2022/11/16 02:15:26;;;;;;;;;;;8.00;99.90;;;;;;4975370;28;19918;-70
2022/11/16 02:18:02;;;;;;;;;;;8.00;99.90;;;;;;4966170;29;20105;-70
2022/11/16 02:20:36;;;;;;;;;;;8.00;99.90;;;;;;4966218;29;19981;-70
2022/11/16 02:23:29;;;;;;;;;;;8.00;99.90;;;;;;4966301;29;19917;-71
2022/11/16 02:26:22;;;;;;;;;;;8.00;99.90;;;;;;4966141;29;19952;-70
2022/11/16 02:29:21;;;;;;;;;;;8.00;99.90;;;;;;4967192;28;19914;-70
2022/11/16 02:32:08;;;;;;;;;;;8.00;99.90;;;;;;4966217;29;19918;-71
2022/11/16 02:34:57;;;;;;;;;;;8.00;99.90;;;;;;4967103;28;19911;-71
2022/11/16 02:37:23;;;;;;;;;;;8.00;99.90;;;;;;4963721;28;19965;-71
2022/11/16 02:39:53;;;;;;;;;;;8.00;99.90;;;;;;4965917;29;19911;-71
2022/11/16 02:42:44;;;;;;;;;;;8.00;99.90;;;;;;4973921;28;19965;-71
2022/11/16 02:45:11;;;;;;;;;;;8.00;99.90;;;;;;4981827;28;19915;-71
2022/11/16 02:47:37;;;;;;;;;;;8.00;99.90;;;;;;4984554;28;19961;-71
2022/11/16 02:50:09;;;;;;;;;;;8.00;99.90;;;;;;4968828;28;19918;-71
2022/11/16 02:52:35;;;;;;;;;;;8.00;99.90;;;;;;4977135;28;19921;-71
2022/11/16 02:55:01;;;;;;;;;;;8.00;99.90;;;;;;4985083;28;19917;-71
2022/11/16 02:57:52;;;;;;;;;;;8.00;99.90;;;;;;4968358;28;19919;-71
2022/11/16 03:00:42;;;;;;;;;;;7.90;99.90;;;;;;4966900;29;19918;-71
2022/11/16 03:03:11;;;;;;;;;;;7.90;99.90;;;;;;4967782;28;19977;-71
2022/11/16 03:06:04;;;;;;;;;;;7.80;99.90;;;;;;4965343;29;20113;-71
2022/11/16 03:08:31;;;;;;;;;;;7.80;99.90;;;;;;4964297;29;19917;-70
2022/11/16 03:13:46;;;;;;;;;;;7.70;99.90;;;;;;4983316;28;19920;-71
2022/11/16 03:16:26;;;;;;;;;;;7.70;99.90;;;;;;4967564;28;19980;-71
2022/11/16 03:18:52;;;;;;;;;;;7.60;99.90;;;;;;4984265;28;19933;-71
2022/11/16 03:21:32;;;;;;;;;;;7.60;99.90;;;;;;4968556;28;20177;-71
2022/11/16 03:23:57;;;;;;;;;;;7.60;99.90;;;;;;4984466;28;19922;-70
2022/11/16 03:26:25;;;;;;;;;;;7.60;99.90;;;;;;4983713;28;20058;-70
2022/11/16 03:28:58;;;;;;;;;;;7.60;99.90;;;;;;4984243;28;19945;-70
2022/11/16 03:31:28;;;;;;;;;;;7.50;99.90;;;;;;4968585;28;20109;-70
2022/11/16 03:33:56;;;;;;;;;;;7.50;99.90;;;;;;4968245;28;19910;-71
2022/11/16 03:36:35;;;;;;;;;;;7.50;99.90;;;;;;4968189;28;20216;-71
2022/11/16 03:39:11;;;;;;;;;;;7.50;99.90;;;;;;4968178;28;19976;-71
2022/11/16 03:41:39;;;;;;;;;;;7.50;99.90;;;;;;4980903;28;20301;-71
2022/11/16 03:44:07;;;;;;;;;;;7.50;99.90;;;;;;4964920;28;20322;-72
2022/11/16 03:46:33;;;;;;;;;;;7.50;99.90;;;;;;4964793;29;19926;-71
2022/11/16 03:48:59;;;;;;;;;;;7.50;99.90;;;;;;4965912;28;20173;-71
2022/11/16 03:51:25;;;;;;;;;;;7.50;99.90;;;;;;4965171;29;19910;-71
2022/11/16 03:53:51;;;;;;;;;;;7.50;99.90;;;;;;4966188;28;19918;-71
2022/11/16 03:56:16;;;;;;;;;;;7.60;99.90;;;;;;4965652;28;19945;-70
2022/11/16 03:58:42;;;;;;;;;;;7.50;99.90;;;;;;4965492;28;20189;-70
2022/11/16 04:01:07;;;;;;;;;;;7.50;99.90;;;;;;4965740;28;19926;-70
2022/11/16 04:03:33;;;;;;;;;;;7.50;99.90;;;;;;4965601;28;19933;-70
2022/11/16 04:25:23;;;;;;;;;;;7.30;99.90;;;;;;4982754;28;19921;-70
2022/11/16 04:37:47;;;;;;;;;;;7.30;99.90;;;;;;4984196;28;19925;-70
2022/11/16 04:38:52;;;;;;;;;;;7.30;99.90;;;;;;4984138;28;19945;-71
2022/11/16 04:44:02;;;;;;;;;;;7.30;99.90;;;;;;4984139;28;19917;-71
2022/11/16 04:49:19;;;;;;;;;;;7.20;99.90;;;;;;4990688;28;19910;-70
2022/11/16 04:51:45;;;;;;;;;;;7.20;99.90;;;;;;4983995;28;20201;-71
2022/11/16 04:54:11;;;;;;;;;;;7.20;99.90;;;;;;4983885;28;20124;-70
2022/11/16 04:56:36;;;;;;;;;;;7.20;99.90;;;;;;4983426;28;19916;-70
2022/11/16 04:59:02;;;;;;;;;;;7.20;99.90;;;;;;4984011;28;19910;-72
2022/11/16 05:04:11;;;;;;;;;;;7.20;99.90;;;;;;4982914;28;20251;-71
2022/11/16 05:06:37;;;;;;;;;;;7.20;99.90;;;;;;4983562;28;19922;-70
2022/11/16 05:09:03;;;;;;;;;;;7.20;99.90;;;;;;4983805;28;19924;-70
2022/11/16 05:11:28;;;;;;;;;;;7.20;99.90;;;;;;4982911;28;19918;-71
2022/11/16 05:13:54;;;;;;;;;;;7.20;99.90;;;;;;4983558;28;19910;-70
2022/11/16 05:16:20;;;;;;;;;;;7.20;99.90;;;;;;4983371;28;19910;-71
2022/11/16 05:20:59;;;;;;;;;;;7.20;99.90;;;;;;4983504;28;19933;-71
2022/11/16 05:21:31;;;;;;;;;;;7.20;99.90;;;;;;4982505;28;19921;-70
2022/11/16 05:26:41;;;;;;;;;;;7.20;99.90;;;;;;4983069;28;20176;-70
2022/11/16 05:29:06;;;;;;;;;;;7.10;99.90;;;;;;4983276;28;19914;-70
2022/11/16 05:31:32;;;;;;;;;;;7.10;99.90;;;;;;4982357;28;20213;-70
2022/11/16 05:33:58;;;;;;;;;;;7.10;99.90;;;;;;4982719;28;20181;-70
2022/11/16 05:36:23;;;;;;;;;;;7.00;99.90;;;;;;4985571;28;19910;-70
2022/11/16 05:38:49;;;;;;;;;;;7.10;99.90;;;;;;4986780;28;19921;-70
2022/11/16 05:41:15;;;;;;;;;;;7.10;99.90;;;;;;4984803;28;19913;-70
2022/11/16 05:43:40;;;;;;;;;;;7.10;99.90;;;;;;4983852;28;19921;-70
2022/11/16 05:46:06;;;;;;;;;;;7.10;99.90;;;;;;4986437;28;19993;-70
2022/11/16 05:48:31;;;;;;;;;;;7.10;99.90;;;;;;4984868;28;19914;-70
2022/11/16 05:50:58;;;;;;;;;;;7.10;99.90;;;;;;4985529;28;19925;-70
2022/11/16 05:53:32;;;;;;;;;;;7.10;99.90;;;;;;4969580;28;20152;-70
2022/11/16 05:55:58;;;;;;;;;;;7.10;99.90;;;;;;4968486;28;19929;-70
2022/11/16 05:58:23;;;;;;;;;;;7.10;99.90;;;;;;4986400;28;19915;-70
2022/11/16 06:00:50;;;;;;;;;;;7.10;99.90;;;;;;4986720;28;19914;-70
2022/11/16 06:03:15;;;;;;;;;;;7.00;99.90;;;;;;4986609;28;19961;-70
2022/11/16 06:05:41;;;;;;;;;;;7.00;99.90;;;;;;4986423;28;20152;-70
2022/11/16 06:08:07;;;;;;;;;;;7.00;99.90;;;;;;4985034;28;19917;-70
2022/11/16 06:10:33;;;;;;;;;;;7.00;99.90;;;;;;4986517;28;19918;-71
2022/11/16 06:13:01;;;;;;;;;;;7.00;99.90;;;;;;4985792;28;19953;-70
2022/11/16 06:15:26;;;;;;;;;;;7.10;99.90;;;;;;4985515;28;19910;-70
2022/11/16 06:17:52;;;;;;;;;;;7.10;99.90;;;;;;4986048;28;20240;-70
2022/11/16 06:20:17;;;;;;;;;;;7.10;99.90;;;;;;4986337;28;20128;-70
2022/11/16 06:22:43;;;;;;;;;;;7.10;99.90;;;;;;4986143;28;19910;-70
2022/11/16 06:25:09;;;;;;;;;;;7.10;99.90;;;;;;4986249;28;19929;-70
2022/11/16 06:27:38;;;;;;;;;;;7.00;99.90;;;;;;4985643;28;19910;-70
2022/11/16 06:30:05;;;;;;;;;;;7.00;99.90;;;;;;4986302;28;19979;-70
2022/11/16 06:32:31;;;;;;;;;;;7.00;99.90;;;;;;4985087;28;19957;-70
2022/11/16 06:34:56;;;;;;;;;;;6.90;99.90;;;;;;4986240;28;19914;-70
2022/11/16 06:37:22;;;;;;;;;;;7.00;99.90;;;;;;4985677;28;19914;-70
2022/11/16 06:39:47;;;;;;;;;;;7.00;99.90;;;;;;4984889;28;19922;-70
2022/11/16 06:42:13;;;;;;;;;;;7.00;99.90;;;;;;4985103;28;19937;-70
2022/11/16 06:44:39;;;;;;;;;;;7.00;99.90;;;;;;4984435;28;19918;-70
2022/11/16 06:47:04;;;;;;;;;;;7.00;99.90;;;;;;4983405;28;20018;-70
2022/11/16 06:49:30;;;;;;;;;;;7.00;99.90;;;;;;4984162;28;19929;-73
2022/11/16 06:51:56;;;;;;;;;;;7.00;99.90;;;;;;4982273;28;20009;-71
2022/11/16 06:54:22;;;;;;;;;;;7.00;99.90;;;;;;4985276;28;19917;-70
2022/11/16 06:56:47;;;;;;;;;;;7.00;99.90;;;;;;4985200;28;19918;-70
2022/11/16 06:59:13;;;;;;;;;;;7.00;99.90;;;;;;4985689;28;19918;-70
2022/11/16 07:01:38;;;;;;;;;;;7.00;99.90;;;;;;4985567;28;19910;-70
2022/11/16 07:04:04;;;;;;;;;;;7.00;99.90;;;;;;4985570;28;19921;-71
2022/11/16 07:06:30;;;;;;;;;;;7.00;99.90;;;;;;4983980;28;20256;-71
2022/11/16 07:08:55;;;;;;;;;;;7.00;99.90;;;;;;4984597;28;20131;-73
2022/11/16 07:11:24;;;;;;;;;;;7.00;99.90;;;;;;4983890;28;19910;-72
2022/11/16 07:13:50;;;;;;;;;;;7.00;99.90;;;;;;4984105;28;19914;-72
2022/11/16 07:16:15;;;;;;;;;;;7.00;99.90;;;;;;4985221;28;19910;-72
2022/11/16 07:18:41;;;;;;;;;;;7.00;99.90;;;;;;4984296;28;19969;-72
2022/11/16 07:21:08;;;;;;;;;;;7.00;99.90;;;;;;4985331;28;19910;-72
2022/11/16 07:23:34;;;;;;;;;;;7.10;99.90;;;;;;4984352;28;20263;-72
2022/11/16 07:26:00;;;;;;;;;;;7.10;99.90;;;;;;4984309;28;19914;-72
2022/11/16 07:28:27;;;;;;;;;;;7.10;99.90;;;;;;4983159;28;19992;-72
2022/11/16 07:30:53;;;;;;;;;;;7.10;99.90;;;;;;4983701;28;19918;-72
2022/11/16 07:50:10;;;;;;;;;;;7.20;99.90;;;;;;4984067;28;19960;-72
2022/11/16 07:52:36;;;;;;;;;;;7.20;99.90;;;;;;4984502;28;20209;-72
2022/11/16 07:55:02;;;;;;;;;;;7.20;99.90;;;;;;4984908;28;19919;-72
2022/11/16 07:57:27;;;;;;;;;;;7.20;99.90;;;;;;4984220;28;19929;-72
2022/11/16 07:59:53;;;;;;;;;;;7.30;99.90;;;;;;4983583;28;20224;-72
2022/11/16 08:02:19;;;;;;;;;;;7.30;99.90;;;;;;4984546;28;19937;-72
2022/11/16 08:04:44;;;;;;;;;;;7.30;99.90;;;;;;4982988;28;19918;-72
2022/11/16 08:07:10;;;;;;;;;;;7.30;99.90;;;;;;4984368;28;19957;-72
2022/11/16 08:09:36;;;;;;;;;;;7.30;99.90;;;;;;4984226;28;19910;-72
2022/11/16 08:12:02;;;;;;;;;;;7.30;99.90;;;;;;4984469;28;19910;-72
2022/11/16 08:14:28;;;;;;;;;;;7.30;99.90;;;;;;4984309;28;19949;-72
2022/11/16 08:16:53;;;;;;;;;;;7.30;99.90;;;;;;4984068;28;19910;-72
2022/11/16 08:19:19;;;;;;;;;;;7.30;99.90;;;;;;4983916;28;19910;-72
2022/11/16 08:21:45;;;;;;;;;;;7.30;99.90;;;;;;4984189;28;19910;-72
2022/11/16 08:24:10;;;;;;;;;;;7.30;99.90;;;;;;4984335;28;19914;-72
2022/11/16 08:26:36;;;;;;;;;;;7.30;99.90;;;;;;4983940;28;19921;-72
2022/11/16 08:29:01;;;;;;;;;;;7.40;99.90;;;;;;4984157;28;20124;-72
2022/11/16 08:31:27;;;;;;;;;;;7.40;99.90;;;;;;4984181;28;19918;-72
2022/11/16 08:33:53;;;;;;;;;;;7.50;99.90;;;;;;4984028;28;19957;-72
2022/11/16 08:36:19;;;;;;;;;;;7.50;99.90;;;;;;4983746;28;19910;-72
2022/11/16 08:38:48;;;;;;;;;;;7.50;99.90;;;;;;4983811;28;20225;-72
2022/11/16 08:41:14;;;;;;;;;;;7.60;99.90;;;;;;4982821;28;19922;-72
2022/11/16 08:43:40;;;;;;;;;;;7.60;99.90;;;;;;4982891;28;20141;-72
2022/11/16 08:46:09;;;;;;;;;;;7.60;99.90;;;;;;4983587;28;19914;-72
2022/11/16 08:48:35;;;;;;;;;;;7.60;99.90;;;;;;4983515;28;19984;-72
2022/11/16 08:51:07;;;;;;;;;;;7.60;99.90;;;;;;4982485;28;19922;-72
2022/11/16 08:53:33;;;;;;;;;;;7.60;99.90;;;;;;4998896;28;19981;-72
2022/11/16 08:56:07;;;;;;;;;;;7.70;99.90;;;;;;4983633;28;19934;-72
2022/11/16 08:58:34;;;;;;;;;;;7.70;99.90;;;;;;4983606;28;20117;-72
2022/11/16 09:01:06;;;;;;;;;;;7.70;99.90;;;;;;4983791;28;20204;-72
2022/11/16 09:03:32;;;;;;;;;;;7.70;99.90;;;;;;4965373;28;20177;-72
2022/11/16 09:05:58;;;;;;;;;;;7.80;99.90;;;;;;4983348;28;19953;-72
2022/11/16 09:08:23;;;;;;;;;;;7.90;99.90;;;;;;4983934;28;20201;-75
2022/11/16 09:10:49;;;;;;;;;;;7.90;99.90;;;;;;4983776;28;20112;-72
2022/11/16 09:13:15;;;;;;;;;;;8.00;99.90;;;;;;4983939;28;19917;-73
2022/11/16 09:15:41;;;;;;;;;;;8.00;99.90;;;;;;4983688;28;19973;-72
2022/11/16 09:18:06;;;;;;;;;;;8.00;99.90;;;;;;4983037;28;19910;-73
2022/11/16 09:20:32;;;;;;;;;;;8.00;99.90;;;;;;4982472;28;20208;-72
2022/11/16 09:22:57;;;;;;;;;;;8.00;99.90;;;;;;4983658;28;19946;-72
2022/11/16 09:25:23;;;;;;;;;;;8.00;99.90;;;;;;4983596;28;20235;-72
2022/11/16 09:27:49;;;;;;;;;;;8.10;99.90;;;;;;4983370;28;19965;-72
2022/11/16 09:30:16;;;;;;;;;;;8.00;99.90;;;;;;4983351;28;19917;-72
2022/11/16 09:32:42;;;;;;;;;;;8.00;99.90;;;;;;4983472;28;19922;-72
2022/11/16 09:35:08;;;;;;;;;;;8.00;99.90;;;;;;4983671;28;20030;-72
2022/11/16 09:37:33;;;;;;;;;;;8.00;99.90;;;;;;4982866;28;20232;-72
2022/11/16 09:39:59;;;;;;;;;;;8.10;99.90;;;;;;4983037;28;19914;-71
2022/11/16 09:43:03;;;;;;;;;;;8.10;99.90;;;;;;4983350;28;19960;-71
2022/11/16 09:45:38;;;;;;;;;;;8.10;99.90;;;;;;4972818;28;19918;-72
2022/11/16 09:48:04;;;;;;;;;;;8.20;99.90;;;;;;4983040;28;19914;-72
2022/11/16 09:50:52;;;;;;;;;;;8.30;99.90;;;;;;4983648;28;19910;-72
2022/11/16 09:53:36;;;;;;;;;;;8.30;99.90;;;;;;4998898;28;20334;-72
2022/11/16 09:56:06;;;;;;;;;;;8.30;99.90;;;;;;4983611;28;19910;-72
2022/11/16 09:58:36;;;;;;;;;;;8.30;99.90;;;;;;4998839;28;19945;-72
2022/11/16 10:01:05;;;;;;;;;;;8.40;99.90;;;;;;4982692;28;19961;-73
2022/11/16 10:03:31;;;;;;;;;;;8.40;99.90;;;;;;4982232;28;20090;-73
2022/11/16 10:06:10;;;;;;;;;;;8.40;99.90;;;;;;4982153;28;20209;-73
2022/11/16 10:08:38;;;;;;;;;;;8.40;99.90;;;;;;4982251;28;19917;-72
2022/11/16 10:11:13;;;;;;;;;;;8.40;99.90;;;;;;4983403;28;19917;-72
2022/11/16 10:13:51;;;;;;;;;;;8.40;99.90;;;;;;4983453;28;19953;-73
2022/11/16 10:16:31;;;;;;;;;;;8.50;99.90;;;;;;4981664;28;20197;-71
2022/11/16 10:19:06;;;;;;;;;;;8.50;99.90;;;;;;4981533;28;19914;-71
2022/11/16 10:21:58;;;;;;;;;;;8.50;99.90;;;;;;4981550;28;19914;-71
2022/11/16 10:24:34;;;;;;;;;;;8.40;99.90;;;;;;4984655;28;19922;-71
2022/11/16 10:27:37;;;;;;;;;;;8.50;99.90;;;;;;4985717;28;19910;-71
2022/11/16 10:30:12;;;;;;;;;;;8.50;99.90;;;;;;4986816;28;19925;-71
2022/11/16 10:32:44;;;;;;;;;;;8.50;99.90;;;;;;4953995;28;19922;-71
2022/11/16 10:35:09;;;;;;;;;;;8.50;99.90;;;;;;4986066;28;19918;-71
2022/11/16 10:37:38;;;;;;;;;;;8.50;99.90;;;;;;4986437;28;19921;-71
2022/11/16 10:40:22;;;;;;;;;;;8.50;99.90;;;;;;4985549;28;19957;-71
2022/11/16 10:42:56;;;;;;;;;;;8.60;99.90;;;;;;4970563;28;19965;-71
2022/11/16 10:45:52;;;;;;;;;;;8.60;99.90;;;;;;5001640;28;19914;-71
2022/11/16 10:48:38;;;;;;;;;;;8.70;99.90;;;;;;4984752;28;19957;-71
2022/11/16 10:51:04;;;;;;;;;;;8.70;99.90;;;;;;4985262;28;19911;-71
2022/11/16 10:53:38;;;;;;;;;;;8.80;99.90;;;;;;4986114;28;19921;-72
2022/11/16 10:56:24;;;;;;;;;;;8.80;99.90;;;;;;4984707;28;19910;-71
2022/11/16 10:59:01;;;;;;;;;;;9.00;99.90;;;;;;4986360;28;20142;-71
2022/11/16 11:01:32;;;;;;;;;;;9.00;99.90;;;;;;4969061;28;19961;-72
2022/11/16 11:04:20;;;;;;;;;;;9.20;99.90;;;;;;4985647;28;19992;-71
2022/11/16 11:06:48;;;;;;;;;;;9.40;99.90;;;;;;4985562;28;20197;-72
2022/11/16 11:09:33;;;;;;;;;;;9.70;99.90;;;;;;4968730;28;19909;-72
2022/11/16 11:15:11;;;;;;;;;;;10.00;99.90;;;;;;4984679;28;19933;-71
2022/11/16 11:17:38;;;;;;;;;;;10.10;99.90;;;;;;4985306;28;19911;-71
2022/11/16 11:20:16;;;;;;;;;;;10.10;99.90;;;;;;4984250;28;20206;-72
2022/11/16 11:22:47;;;;;;;;;;;10.10;99.90;;;;;;4984218;28;19910;-71
2022/11/16 11:25:33;;;;;;;;;;;10.10;99.90;;;;;;4984189;28;20351;-72
2022/11/16 11:28:17;;;;;;;;;;;10.10;99.90;;;;;;4983933;28;19945;-71
2022/11/16 11:31:05;;;;;;;;;;;10.00;99.90;;;;;;4985767;28;19918;-71
2022/11/16 11:33:35;;;;;;;;;;;10.00;99.90;;;;;;4983689;28;19928;-71
2022/11/16 11:36:12;;;;;;;;;;;10.00;99.90;;;;;;4983929;28;19910;-71
2022/11/16 11:39:20;;;;;;;;;;;10.00;99.90;;;;;;4984054;28;19921;-71
2022/11/16 11:41:59;;;;;;;;;;;10.00;99.90;;;;;;4983822;28;20205;-72
2022/11/16 11:44:56;;;;;;;;;;;10.00;99.90;;;;;;5000119;28;20228;-71
2022/11/16 11:47:46;;;;;;;;;;;10.10;99.90;;;;;;4983556;28;20109;-71
2022/11/16 11:50:18;;;;;;;;;;;10.20;99.90;;;;;;4984659;28;19922;-72
2022/11/16 11:53:26;;;;;;;;;;;10.20;99.90;;;;;;4984219;28;20202;-72
2022/11/16 11:55:55;;;;;;;;;;;10.30;99.90;;;;;;4980069;28;19973;-72
2022/11/16 11:58:21;;;;;;;;;;;10.40;99.90;;;;;;4989446;28;19914;-72
2022/11/16 12:01:02;;;;;;;;;;;10.50;99.90;;;;;;4976988;28;19910;-72
2022/11/16 12:03:56;;;;;;;;;;;10.60;99.90;;;;;;4992427;28;19926;-72
2022/11/16 12:06:29;;;;;;;;;;;10.70;99.90;;;;;;4989512;28;20113;-72
2022/11/16 12:09:29;;;;;;;;;;;10.90;99.90;;;;;;4993297;28;19918;-72
2022/11/16 12:12:22;;;;;;;;;;;11.00;99.90;;;;;;4990474;28;19928;-72
2022/11/16 12:15:04;;;;;;;;;;;11.00;99.90;;;;;;4994546;28;19918;-72
2022/11/16 12:17:59;;;;;;;;;;;11.10;99.90;;;;;;4994364;28;19910;-71
2022/11/16 12:21:00;;;;;;;;;;;11.40;99.90;;;;;;4992780;28;19918;-71
2022/11/16 12:23:32;;;;;;;;;;;11.60;99.90;;;;;;4994402;28;19944;-71
2022/11/16 12:26:12;;;;;;;;;;;11.80;99.90;;;;;;4993424;28;19922;-71
2022/11/16 12:28:50;;;;;;;;;;;12.00;99.90;;;;;;4991052;28;20109;-72
2022/11/16 12:31:43;;;;;;;;;;;12.10;99.90;;;;;;4995833;28;19910;-72
2022/11/16 12:34:19;;;;;;;;;;;12.40;99.90;;;;;;5002309;28;20157;-71
2022/11/16 12:36:53;;;;;;;;;;;12.50;99.90;;;;;;4986745;28;19916;-71
2022/11/16 12:39:23;;;;;;;;;;;12.70;99.90;;;;;;4992132;28;19914;-71
2022/11/16 12:42:19;;;;;;;;;;;12.90;99.90;;;;;;4984074;28;19922;-71
2022/11/16 12:44:50;;;;;;;;;;;13.10;99.90;;;;;;4983682;28;19934;-73
2022/11/16 12:47:41;;;;;;;;;;;13.20;99.90;;;;;;4984036;28;20198;-72
2022/11/16 12:50:24;;;;;;;;;;;13.40;99.90;;;;;;4984189;28;19917;-72
2022/11/16 12:53:21;;;;;;;;;;;13.70;99.90;;;;;;4984462;28;19918;-72
2022/11/16 12:56:02;;;;;;;;;;;13.90;99.90;;;;;;4984358;28;19917;-71
2022/11/16 12:58:47;;;;;;;;;;;14.00;99.90;;;;;;4952407;28;19925;-72
2022/11/16 13:01:19;;;;;;;;;;;13.70;99.90;;;;;;4967659;28;19925;-71
2022/11/16 13:03:52;;;;;;;;;;;13.40;99.90;;;;;;4966849;28;19961;-71
2022/11/16 13:06:19;;;;;;;;;;;13.00;99.90;;;;;;4982282;28;19964;-72
2022/11/16 13:08:55;;;;;;;;;;;12.70;99.90;;;;;;4968675;28;19910;-71
2022/11/16 13:11:32;;;;;;;;;;;12.60;99.90;;;;;;4982720;28;20205;-72
2022/11/16 13:14:04;;;;;;;;;;;12.50;99.90;;;;;;4982981;28;19949;-71
2022/11/16 13:16:29;;;;;;;;;;;12.50;99.90;;;;;;4982544;28;19918;-71
2022/11/16 13:18:55;;;;;;;;;;;12.60;99.90;;;;;;4982153;28;19910;-72
2022/11/16 13:21:27;;;;;;;;;;;12.60;99.90;;;;;;4982513;28;19957;-72
2022/11/16 13:24:30;;;;;;;;;;;12.70;99.90;;;;;;4982635;28;19956;-71
2022/11/16 13:27:18;;;;;;;;;;;12.60;99.90;;;;;;4983287;28;20180;-71
2022/11/16 13:29:52;;;;;;;;;;;12.60;99.90;;;;;;4982434;28;20202;-72
2022/11/16 13:32:25;;;;;;;;;;;12.60;99.90;;;;;;4982572;28;19925;-71
2022/11/16 13:34:51;;;;;;;;;;;12.60;99.90;;;;;;4982972;28;19914;-71
2022/11/16 13:37:35;;;;;;;;;;;12.60;99.90;;;;;;4985128;28;19960;-72
2022/11/16 13:40:01;;;;;;;;;;;12.50;99.90;;;;;;4984058;28;19914;-71
2022/11/16 13:42:28;;;;;;;;;;;12.30;99.90;;;;;;4983518;28;20117;-71
2022/11/16 13:45:05;;;;;;;;;;;12.20;99.90;;;;;;4982311;28;20423;-71
2022/11/16 13:47:31;;;;;;;;;;;12.10;99.90;;;;;;4982048;28;19910;-71
2022/11/16 13:49:58;;;;;;;;;;;12.00;99.90;;;;;;4982051;28;20251;-71
2022/11/16 13:52:40;;;;;;;;;;;11.90;99.90;;;;;;4982462;28;20205;-72
2022/11/16 13:55:33;;;;;;;;;;;11.90;99.90;;;;;;4982360;28;20066;-72
2022/11/16 13:58:00;;;;;;;;;;;11.80;99.90;;;;;;4985529;28;19942;-71
2022/11/16 14:00:35;;;;;;;;;;;11.70;99.90;;;;;;4970899;28;19910;-72
2022/11/16 14:03:16;;;;;;;;;;;11.70;99.90;;;;;;4987835;28;20260;-71
2022/11/16 14:05:46;;;;;;;;;;;11.60;99.90;;;;;;4987073;28;19914;-71
2022/11/16 14:08:18;;;;;;;;;;;11.60;99.90;;;;;;4971321;28;19937;-71
2022/11/16 14:10:44;;;;;;;;;;;11.60;99.90;;;;;;4989989;28;19965;-72
2022/11/16 14:13:45;;;;;;;;;;;11.50;99.90;;;;;;4987959;28;20198;-72
2022/11/16 14:16:14;;;;;;;;;;;11.50;99.90;;;;;;4988156;28;19910;-71
2022/11/16 14:18:40;;;;;;;;;;;11.40;99.90;;;;;;4986816;28;20125;-71
2022/11/16 14:21:14;;;;;;;;;;;11.30;99.90;;;;;;4985715;28;19949;-71
2022/11/16 14:24:10;;;;;;;;;;;11.30;99.90;;;;;;4985531;28;19910;-71
2022/11/16 14:26:39;;;;;;;;;;;11.20;99.90;;;;;;4986443;28;19961;-71
2022/11/16 14:29:22;;;;;;;;;;;11.20;99.90;;;;;;4985521;28;19989;-71
2022/11/16 14:31:55;;;;;;;;;;;11.10;99.90;;;;;;4985467;28;20388;-72
2022/11/16 14:34:23;;;;;;;;;;;11.10;99.90;;;;;;4985242;28;19918;-71
2022/11/16 14:36:49;;;;;;;;;;;11.10;99.90;;;;;;4985077;28;19910;-71
2022/11/16 14:39:26;;;;;;;;;;;11.10;99.90;;;;;;4985326;28;20224;-71
2022/11/16 14:41:52;;;;;;;;;;;11.00;99.90;;;;;;4985537;28;19918;-72
2022/11/16 14:44:20;;;;;;;;;;;10.90;99.90;;;;;;4985130;28;19918;-71
2022/11/16 14:46:46;;;;;;;;;;;10.80;99.90;;;;;;4985132;28;19981;-72
2022/11/16 14:49:12;;;;;;;;;;;10.80;99.90;;;;;;4984826;28;19917;-72
2022/11/16 14:51:58;;;;;;;;;;;10.70;99.90;;;;;;4985087;28;19918;-71
2022/11/16 14:54:59;;;;;;;;;;;10.70;99.90;;;;;;4987062;28;19910;-72
2022/11/16 14:57:25;;;;;;;;;;;10.60;99.90;;;;;;4980874;28;19910;-71
2022/11/16 15:00:07;;;;;;;;;;;10.50;99.90;;;;;;4987176;28;19916;-71
2022/11/16 15:02:33;;;;;;;;;;;10.50;99.90;;;;;;4989030;28;19918;-71
2022/11/16 15:04:58;;;;;;;;;;;10.50;99.90;;;;;;4986919;28;20122;-71
2022/11/16 15:07:25;;;;;;;;;;;10.40;99.90;;;;;;4986251;28;19931;-72
2022/11/16 15:09:54;;;;;;;;;;;10.40;99.90;;;;;;4986622;28;19911;-71
2022/11/16 15:12:40;;;;;;;;;;;10.40;99.90;;;;;;4984101;28;19932;-71
2022/11/16 15:15:06;;;;;;;;;;;10.30;99.90;;;;;;4985286;28;19917;-71
2022/11/16 15:17:33;;;;;;;;;;;10.30;99.90;;;;;;4985034;28;19910;-71
2022/11/16 15:20:20;;;;;;;;;;;10.20;99.90;;;;;;4983995;28;19913;-71
2022/11/16 15:22:50;;;;;;;;;;;10.20;99.90;;;;;;4984329;28;20208;-71
2022/11/16 15:25:38;;;;;;;;;;;10.10;99.90;;;;;;4984228;28;19914;-71
2022/11/16 15:28:26;;;;;;;;;;;10.10;99.90;;;;;;4984835;28;20209;-72
2022/11/16 15:30:53;;;;;;;;;;;10.00;99.90;;;;;;4984030;28;19910;-71
2022/11/16 15:33:25;;;;;;;;;;;10.00;99.90;;;;;;4967858;28;19937;-71
2022/11/16 15:35:52;;;;;;;;;;;10.00;99.90;;;;;;4983861;28;19910;-71
2022/11/16 15:38:29;;;;;;;;;;;9.90;99.90;;;;;;4984565;28;19922;-72
2022/11/16 15:41:04;;;;;;;;;;;9.80;99.90;;;;;;4983906;28;20006;-71
2022/11/16 15:43:38;;;;;;;;;;;9.70;99.90;;;;;;4984036;28;19942;-71
2022/11/16 15:46:03;;;;;;;;;;;9.70;99.90;;;;;;4983660;28;20239;-71
2022/11/16 15:48:29;;;;;;;;;;;9.60;99.90;;;;;;4983503;28;19945;-71
2022/11/16 15:50:55;;;;;;;;;;;9.60;99.90;;;;;;4983612;28;19910;-71
2022/11/16 15:53:40;;;;;;;;;;;9.60;99.90;;;;;;4967587;28;20220;-71
2022/11/16 15:56:09;;;;;;;;;;;9.50;99.90;;;;;;4983631;28;19921;-71